createdAt,value
2023-02-18T05:03:13.447Z,1.23
2023-02-18T05:05:43.056Z,0.40
2023-02-18T05:08:11.106Z,1.60
2023-02-18T05:10:40.099Z,1.70
2023-02-18T05:13:08.260Z,0.70
2023-02-18T05:15:36.379Z,0.60
2023-02-18T05:18:04.621Z,0.80
2023-02-18T05:20:32.673Z,0.50
2023-02-18T05:23:02.079Z,0.98
2023-02-18T05:25:30.113Z,0.80
2023-02-18T05:27:58.226Z,1.15
2023-02-18T05:30:26.302Z,0.33
2023-02-18T05:32:54.380Z,0.60
2023-02-18T05:35:22.398Z,1.20
2023-02-18T05:37:50.435Z,0.70
2023-02-18T05:40:20.085Z,0.87
2023-02-18T05:42:48.147Z,0.30
2023-02-18T05:45:16.325Z,0.68
2023-02-18T05:47:44.359Z,1.45
2023-02-18T05:50:12.753Z,0.82
2023-02-18T05:52:40.912Z,0.88
2023-02-18T05:55:09.300Z,0.70
2023-02-18T05:57:38.772Z,0.60
2023-02-18T06:00:09.712Z,1.10
2023-02-18T06:02:37.990Z,0.93
2023-02-18T06:05:06.641Z,0.60
2023-02-18T06:07:34.770Z,0.77
2023-02-18T06:10:02.825Z,0.63
2023-02-18T06:12:30.884Z,0.80
2023-02-18T06:15:00.391Z,0.40
2023-02-18T06:17:28.479Z,0.50
2023-02-18T06:19:56.479Z,0.90
2023-02-18T06:22:24.535Z,1.05
2023-02-18T06:24:52.614Z,0.50
2023-02-18T06:27:20.698Z,0.73
2023-02-18T06:29:48.734Z,0.70
2023-02-18T06:32:19.656Z,0.93
2023-02-18T06:34:47.721Z,1.40
2023-02-18T06:37:15.778Z,0.85
2023-02-18T06:39:43.790Z,0.80
2023-02-18T06:42:11.867Z,0.80
2023-02-18T06:44:39.891Z,0.70
2023-02-18T06:47:07.990Z,0.50
2023-02-18T06:49:38.993Z,0.80
2023-02-18T06:52:07.034Z,0.80
2023-02-18T06:54:36.153Z,0.55
2023-02-18T06:57:04.234Z,0.50
2023-02-18T06:59:32.348Z,0.53
2023-02-18T07:02:00.477Z,0.80
2023-02-18T07:04:28.501Z,1.00
2023-02-18T07:06:57.957Z,0.80
2023-02-18T07:09:26.022Z,0.65
2023-02-18T07:12:12.988Z,1.30
2023-02-18T07:14:41.237Z,1.83
2023-02-18T07:17:09.363Z,0.90
2023-02-18T07:19:37.416Z,1.33
2023-02-18T07:22:06.792Z,1.40
2023-02-18T07:24:34.840Z,1.13
2023-02-18T07:27:02.960Z,1.92
2023-02-18T07:29:31.033Z,0.88
2023-02-18T07:32:05.850Z,1.50
2023-02-18T07:34:46.487Z,1.17
2023-02-18T07:37:15.862Z,1.10
2023-02-18T07:39:44.475Z,0.90
2023-02-18T07:42:14.189Z,0.57
2023-02-18T07:44:42.778Z,1.02
2023-02-18T07:47:14.668Z,1.00
2023-02-18T07:49:43.113Z,0.80
2023-02-18T07:52:11.206Z,1.27
2023-02-18T07:54:40.712Z,0.80
2023-02-18T07:57:09.003Z,0.40
2023-02-18T07:59:37.189Z,0.77
2023-02-18T08:02:05.633Z,1.00
2023-02-18T08:04:33.782Z,0.80
2023-02-18T08:07:01.889Z,0.60
2023-02-18T08:09:30.045Z,0.70
2023-02-18T08:11:59.849Z,0.60
2023-02-18T08:14:27.914Z,0.60
2023-02-18T08:16:56.065Z,0.38
2023-02-18T08:19:24.154Z,0.80
2023-02-18T08:21:52.234Z,0.60
2023-02-18T08:24:20.268Z,0.70
2023-02-18T08:26:59.957Z,0.43
2023-02-18T08:29:30.370Z,0.50
2023-02-18T08:31:59.529Z,0.50
2023-02-18T08:34:27.659Z,0.60
2023-02-18T08:36:55.746Z,0.93
2023-02-18T08:39:23.827Z,0.63
2023-02-18T08:41:51.910Z,0.70
2023-02-18T08:44:19.951Z,0.65
2023-02-18T08:46:49.632Z,0.70
2023-02-18T08:49:20.927Z,0.80
2023-02-18T08:51:49.432Z,0.50
2023-02-18T08:54:17.680Z,0.73
2023-02-18T08:56:45.844Z,0.70
2023-02-18T08:59:13.907Z,0.50
2023-02-18T09:01:42.049Z,1.10
2023-02-18T09:04:11.671Z,1.00
2023-02-18T09:06:40.133Z,1.00
2023-02-18T09:09:08.218Z,0.60
2023-02-18T09:11:36.280Z,1.08
2023-02-18T09:14:04.382Z,1.45
2023-02-18T09:16:32.491Z,1.25
2023-02-18T09:19:00.652Z,0.68
2023-02-18T09:21:30.612Z,0.53
2023-02-18T09:23:59.563Z,0.70
2023-02-18T09:26:27.783Z,0.90
2023-02-18T09:28:57.317Z,0.85
2023-02-18T09:31:27.451Z,0.70
2023-02-18T09:34:02.730Z,0.80
2023-02-18T09:36:32.421Z,0.95
2023-02-18T09:39:00.746Z,0.80
2023-02-18T09:41:34.868Z,1.10
2023-02-18T09:44:07.655Z,1.08
2023-02-18T09:46:39.758Z,1.23
2023-02-18T09:49:10.200Z,0.70
2023-02-18T09:51:39.661Z,1.17
2023-02-18T09:54:11.012Z,1.13
2023-02-18T09:56:40.679Z,1.30
2023-02-18T09:59:14.707Z,0.60
2023-02-18T10:01:43.531Z,1.20
2023-02-18T10:04:17.315Z,1.40
2023-02-18T10:06:48.112Z,0.80
2023-02-18T10:09:21.604Z,1.10
2023-02-18T10:11:52.092Z,1.27
2023-02-18T10:14:20.622Z,1.45
2023-02-18T10:16:50.708Z,0.90
2023-02-18T10:19:24.451Z,1.98
2023-02-18T10:21:54.806Z,2.10
2023-02-18T10:24:30.305Z,1.65
2023-02-18T10:26:58.775Z,1.92
2023-02-18T10:29:27.051Z,0.60
2023-02-18T10:31:58.129Z,1.67
2023-02-18T10:34:32.291Z,2.40
2023-02-18T10:37:07.478Z,1.48
2023-02-18T10:39:44.961Z,0.90
2023-02-18T10:42:26.175Z,1.25
2023-02-18T10:45:00.514Z,0.60
2023-02-18T10:47:38.310Z,1.10
2023-02-18T10:50:11.197Z,1.50
2023-02-18T10:52:43.830Z,2.30
2023-02-18T10:55:13.395Z,2.50
2023-02-18T10:57:49.608Z,1.80
2023-02-18T11:00:20.734Z,1.77
2023-02-18T11:02:50.210Z,1.80
2023-02-18T11:05:21.762Z,1.10
2023-02-18T11:07:52.593Z,1.27
2023-02-18T11:10:24.257Z,0.60
2023-02-18T11:12:54.295Z,1.00
2023-02-18T11:15:24.428Z,1.27
2023-02-18T11:17:54.468Z,1.10
2023-02-18T11:20:30.416Z,1.30
2023-02-18T11:23:16.108Z,1.70
2023-02-18T11:25:57.822Z,1.30
2023-02-18T11:28:36.436Z,1.67
2023-02-18T11:31:06.601Z,0.70
2023-02-18T11:33:36.844Z,0.80
2023-02-18T11:36:13.528Z,0.77
2023-02-18T11:38:47.749Z,0.60
2023-02-18T11:41:18.408Z,1.58
2023-02-18T11:43:49.370Z,1.40
2023-02-18T11:46:19.493Z,0.57
2023-02-18T11:48:47.958Z,1.27
2023-02-18T11:51:21.640Z,1.00
2023-02-18T11:54:00.372Z,1.00
2023-02-18T11:56:31.044Z,0.60
2023-02-18T11:59:04.089Z,1.50
2023-02-18T12:01:41.524Z,0.70
2023-02-18T12:04:14.176Z,1.00
2023-02-18T12:06:50.457Z,0.90
2023-02-18T12:09:28.687Z,0.85
2023-02-18T12:12:00.264Z,1.40
2023-02-18T12:14:29.306Z,1.10
2023-02-18T12:17:39.642Z,0.80
2023-02-18T12:20:23.809Z,1.40
2023-02-18T12:22:55.442Z,1.05
2023-02-18T12:25:38.514Z,1.40
2023-02-18T12:28:19.194Z,0.68
2023-02-18T12:31:03.853Z,0.63
2023-02-18T12:33:39.821Z,0.47
2023-02-18T12:36:15.395Z,0.80
2023-02-18T12:39:02.193Z,0.50
2023-02-18T12:42:01.646Z,1.02
2023-02-18T12:44:45.322Z,0.47
2023-02-18T12:47:42.325Z,0.60
2023-02-18T12:50:33.691Z,0.52
2023-02-18T12:53:27.068Z,1.00
2023-02-18T12:56:07.123Z,0.90
2023-02-18T12:58:45.149Z,1.00
2023-02-18T13:01:31.707Z,0.80
2023-02-18T13:04:28.909Z,1.48
2023-02-18T13:07:11.792Z,1.30
2023-02-18T13:09:50.331Z,0.68
2023-02-18T13:12:22.005Z,1.13
2023-02-18T13:14:57.413Z,1.10
2023-02-18T13:17:29.026Z,1.10
2023-02-18T13:20:00.267Z,0.50
2023-02-18T13:22:30.931Z,0.90
2023-02-18T13:25:00.062Z,1.13
2023-02-18T13:27:33.301Z,0.80
2023-02-18T13:30:18.668Z,1.80
2023-02-18T13:32:53.404Z,1.00
2023-02-18T13:35:26.954Z,0.70
2023-02-18T13:38:06.740Z,1.27
2023-02-18T13:40:35.572Z,1.30
2023-02-18T13:43:21.272Z,0.90
2023-02-18T13:46:11.083Z,1.17
2023-02-18T13:48:46.080Z,1.27
2023-02-18T13:51:16.039Z,1.15
2023-02-18T13:53:46.248Z,1.83
2023-02-18T13:56:24.161Z,1.30
2023-02-18T13:58:55.189Z,1.50
2023-02-18T14:01:33.289Z,1.70
2023-02-18T14:04:02.499Z,0.93
2023-02-18T14:06:33.276Z,2.75
2023-02-18T14:09:37.328Z,1.27
2023-02-18T14:12:26.666Z,1.25
2023-02-18T14:14:54.950Z,1.00
2023-02-18T14:17:40.598Z,1.80
2023-02-18T14:20:35.055Z,0.80
2023-02-18T14:23:03.522Z,1.60
2023-02-18T14:25:42.189Z,1.70
2023-02-18T14:28:39.739Z,1.00
2023-02-18T14:31:29.885Z,2.50
2023-02-18T14:34:35.883Z,1.60
2023-02-18T14:37:16.585Z,2.50
2023-02-18T14:39:53.150Z,4.93
2023-02-18T14:42:29.474Z,2.90
2023-02-18T14:45:08.148Z,1.10
2023-02-18T14:47:51.542Z,1.08
2023-02-18T14:50:23.300Z,3.47
2023-02-18T14:52:53.500Z,3.90
2023-02-18T14:55:25.575Z,2.90
2023-02-18T14:57:56.349Z,2.55
2023-02-18T15:00:27.779Z,1.00
2023-02-18T15:02:57.193Z,3.25
2023-02-18T15:05:29.878Z,2.22
2023-02-18T15:07:59.936Z,2.03
2023-02-18T15:10:38.045Z,2.35
2023-02-18T15:13:10.859Z,1.57
2023-02-18T15:15:39.293Z,3.53
2023-02-18T15:18:07.968Z,2.45
2023-02-18T15:20:40.508Z,2.53
2023-02-18T15:23:11.263Z,1.85
2023-02-18T15:25:41.187Z,1.60
2023-02-18T15:28:23.073Z,0.65
2023-02-18T15:30:51.743Z,2.47
2023-02-18T15:33:21.714Z,2.10
2023-02-18T15:35:51.782Z,2.35
2023-02-18T15:38:21.582Z,1.33
2023-02-18T15:40:52.107Z,2.20
2023-02-18T15:43:25.218Z,1.85
2023-02-18T15:45:55.762Z,1.87
2023-02-18T15:48:32.727Z,2.20
2023-02-18T15:51:16.307Z,2.53
2023-02-18T15:53:49.261Z,2.63
2023-02-18T15:56:22.570Z,2.17
2023-02-18T15:58:51.227Z,1.45
2023-02-18T16:01:28.645Z,3.08
2023-02-18T16:03:57.983Z,4.05
2023-02-18T16:06:30.216Z,7.60
2023-02-18T16:09:01.815Z,1.83
2023-02-18T16:11:32.964Z,2.80
2023-02-18T16:14:01.687Z,4.17
2023-02-18T16:16:31.910Z,3.20
2023-02-18T16:19:00.493Z,3.60
2023-02-18T16:21:39.228Z,5.25
2023-02-18T16:24:25.689Z,3.90
2023-02-18T16:26:56.052Z,6.45
2023-02-18T16:29:27.344Z,4.55
2023-02-18T16:31:55.958Z,2.57
2023-02-18T16:34:24.354Z,2.28
2023-02-18T16:37:11.033Z,4.05
2023-02-18T16:39:39.815Z,3.42
2023-02-18T16:42:11.901Z,3.97
2023-02-18T16:44:40.278Z,2.90
2023-02-18T16:47:09.302Z,2.35
2023-02-18T16:49:46.489Z,1.90
2023-02-18T16:52:19.550Z,3.30
2023-02-18T16:54:50.526Z,1.35
2023-02-18T16:57:19.013Z,4.25
2023-02-18T16:59:47.548Z,3.00
2023-02-18T17:02:19.479Z,3.10
2023-02-18T17:04:48.170Z,2.38
2023-02-18T17:07:18.580Z,2.63
2023-02-18T17:09:47.503Z,2.53
2023-02-18T17:12:16.198Z,1.70
2023-02-18T17:14:47.152Z,1.40
2023-02-18T17:17:18.101Z,5.45
2023-02-18T17:19:47.078Z,1.25
2023-02-18T17:22:18.330Z,1.70
2023-02-18T17:24:47.025Z,1.80
2023-02-18T17:27:15.752Z,0.70
2023-02-18T17:29:44.285Z,0.90
2023-02-18T17:32:14.689Z,2.03
2023-02-18T17:34:43.586Z,3.33
2023-02-18T17:37:14.215Z,3.40
2023-02-18T17:39:45.340Z,2.00
2023-02-18T17:42:14.737Z,2.20
2023-02-18T17:44:43.178Z,2.22
2023-02-18T17:47:12.442Z,2.60
2023-02-18T17:49:41.617Z,1.33
2023-02-18T17:52:23.336Z,3.13
2023-02-18T17:54:53.851Z,2.30
2023-02-18T17:57:22.372Z,1.50
2023-02-18T17:59:51.001Z,1.67
2023-02-18T18:02:28.018Z,2.10
2023-02-18T18:04:56.928Z,1.40
2023-02-18T18:07:25.730Z,2.30
2023-02-18T18:09:55.667Z,1.52
2023-02-18T18:12:25.224Z,2.78
2023-02-18T18:14:53.977Z,1.80
2023-02-18T18:17:23.169Z,0.50
2023-02-18T18:19:51.594Z,2.72
2023-02-18T18:22:20.278Z,1.00
2023-02-18T18:24:50.065Z,2.40
2023-02-18T18:27:20.452Z,1.75
2023-02-18T18:29:49.781Z,2.17
2023-02-18T18:32:18.290Z,1.05
2023-02-18T18:34:49.103Z,2.20
2023-02-18T18:37:18.129Z,2.33
2023-02-18T18:39:46.920Z,1.85
2023-02-18T18:42:15.049Z,2.25
2023-02-18T18:44:45.787Z,2.80
2023-02-18T18:47:14.614Z,3.25
2023-02-18T18:49:43.383Z,2.22
2023-02-18T18:52:15.242Z,4.15
2023-02-18T18:54:44.634Z,3.60
2023-02-18T18:57:13.601Z,3.47
2023-02-18T18:59:45.290Z,2.70
2023-02-18T19:02:16.586Z,1.08
2023-02-18T19:04:45.133Z,1.80
2023-02-18T19:07:13.921Z,1.38
2023-02-18T19:09:43.283Z,1.98
2023-02-18T19:12:12.179Z,1.17
2023-02-18T19:14:40.972Z,2.10
2023-02-18T19:17:11.270Z,1.20
2023-02-18T19:19:39.722Z,4.07
2023-02-18T19:22:08.707Z,2.70
2023-02-18T19:24:39.078Z,1.77
2023-02-18T19:27:07.701Z,2.35
2023-02-18T19:29:36.689Z,0.50
2023-02-18T19:32:06.105Z,2.95
2023-02-18T19:34:36.723Z,2.88
2023-02-18T19:37:05.385Z,2.97
2023-02-18T19:39:34.068Z,1.58
2023-02-18T19:42:02.846Z,2.50
2023-02-18T19:44:35.729Z,1.80
2023-02-18T19:47:05.046Z,2.90
2023-02-18T19:49:33.544Z,2.88
2023-02-18T19:52:04.570Z,1.50
2023-02-18T19:54:33.351Z,2.97
2023-02-18T19:57:01.980Z,1.60
2023-02-18T19:59:31.613Z,1.80
2023-02-18T20:02:01.817Z,5.70
2023-02-18T20:04:30.861Z,1.60
2023-02-18T20:06:59.859Z,1.25
2023-02-18T20:09:29.876Z,3.22
2023-02-18T20:11:59.482Z,4.53
2023-02-18T20:14:29.739Z,4.10
2023-02-18T20:17:01.697Z,3.22
2023-02-18T20:19:31.975Z,2.92
2023-02-18T20:22:01.589Z,0.90
2023-02-18T20:24:35.597Z,3.30
2023-02-18T20:27:06.926Z,5.38
2023-02-18T20:29:36.501Z,3.25
2023-02-18T20:32:05.837Z,3.55
2023-02-18T20:34:36.587Z,5.40
2023-02-18T20:37:05.368Z,3.40
2023-02-18T20:39:36.538Z,3.73
2023-02-18T20:42:16.360Z,2.90
2023-02-18T20:44:46.311Z,4.90
2023-02-18T20:47:14.835Z,2.85
2023-02-18T20:49:43.532Z,5.68
2023-02-18T20:52:12.221Z,4.65
2023-02-18T20:54:42.839Z,3.00
2023-02-18T20:57:11.257Z,3.10
2023-02-18T20:59:39.372Z,2.90
2023-02-18T21:02:08.243Z,3.90
2023-02-18T21:04:36.883Z,3.57
2023-02-18T21:07:05.279Z,3.17
2023-02-18T21:09:33.804Z,2.85
2023-02-18T21:12:04.219Z,2.28
2023-02-18T21:14:33.998Z,6.70
2023-02-18T21:17:07.885Z,4.35
2023-02-18T21:19:38.498Z,2.13
2023-02-18T21:22:07.397Z,2.60
2023-02-18T21:24:36.788Z,2.63
2023-02-18T21:27:06.915Z,4.60
2023-02-18T21:29:35.582Z,2.53
2023-02-18T21:32:05.376Z,3.67
2023-02-18T21:34:35.387Z,2.40
2023-02-18T21:37:04.048Z,3.60
2023-02-18T21:39:33.989Z,4.10
2023-02-18T21:42:04.661Z,3.70
2023-02-18T21:44:43.019Z,2.47
2023-02-18T21:47:12.579Z,2.60
2023-02-18T21:49:41.203Z,1.65
2023-02-18T21:52:10.326Z,2.53
2023-02-18T21:54:41.233Z,4.78
2023-02-18T21:57:12.542Z,2.47
2023-02-18T21:59:43.533Z,1.50
2023-02-18T22:02:17.790Z,1.80
2023-02-18T22:04:47.324Z,2.42
2023-02-18T22:07:18.516Z,4.00
2023-02-18T22:09:48.592Z,2.70
2023-02-18T22:12:17.747Z,2.83
2023-02-18T22:14:47.781Z,2.50
2023-02-18T22:17:16.781Z,2.37
2023-02-18T22:19:46.416Z,4.55
2023-02-18T22:22:15.191Z,3.27
2023-02-18T22:24:43.802Z,1.50
2023-02-18T22:27:12.409Z,4.00
2023-02-18T22:29:41.066Z,6.32
2023-02-18T22:32:11.472Z,2.80
2023-02-18T22:34:40.301Z,3.35
2023-02-18T22:37:11.828Z,6.55
2023-02-18T22:39:40.902Z,3.75
2023-02-18T22:42:10.065Z,2.70
2023-02-18T22:44:39.892Z,4.35
2023-02-18T22:47:08.492Z,3.85
